Saint Clair, Ohio
Current Conditions -  °F | °C
As of 7:53 AM on Thursday 30 Oct 2014 (Local Time) from KHAO Reporting Station
Overcast Overcast  
Wind Chill: 40°   Ceiling: 4600
Heat Index: 40°   Visibility: 10mi
Dew Point: 37°   Wind: 0mph
Humidity: 89%   Direction: NA
Pressure: 30.17"   Gusts: NA
Location:  39.4247°N, 84.5012°W
Report Text: KHAO 301153Z AUTO 00000KT 10SM OVC046 04/03 A3017 RMK AO2 SLP221 T00440028 10078 20039 51009
Loading
Personal Weather Stations






























Interactive Weather Map
Tropical Storm Tracking
New forecast layout! Learn more

10-Day Weather Forecast

Advertisements
Track Severe Weather on mobile